sensor_id;sensor_type;location;lat;lon;timestamp;temperature;humidity
15103;DHT22;7652;53.584;9.998;2023-09-18T00:02:16;19.00;99.90
15103;DHT22;7652;53.584;9.998;2023-09-18T00:05:38;19.00;99.90
15103;DHT22;7652;53.584;9.998;2023-09-18T00:08:59;19.00;99.90
15103;DHT22;7652;53.584;9.998;2023-09-18T00:12:21;19.00;99.90
15103;DHT22;7652;53.584;9.998;2023-09-18T00:15:44;19.10;99.90
15103;DHT22;7652;53.584;9.998;2023-09-18T00:19:07;19.00;99.90
15103;DHT22;7652;53.584;9.998;2023-09-18T00:22:29;19.00;99.90
15103;DHT22;7652;53.584;9.998;2023-09-18T00:25:51;19.10;99.90
15103;DHT22;7652;53.584;9.998;2023-09-18T00:29:13;19.10;99.90
15103;DHT22;7652;53.584;9.998;2023-09-18T00:32:35;19.10;99.90
15103;DHT22;7652;53.584;9.998;2023-09-18T00:35:58;19.00;99.90
15103;DHT22;7652;53.584;9.998;2023-09-18T00:39:19;19.00;99.90
15103;DHT22;7652;53.584;9.998;2023-09-18T00:42:41;18.90;99.90
15103;DHT22;7652;53.584;9.998;2023-09-18T00:46:02;19.00;99.90
15103;DHT22;7652;53.584;9.998;2023-09-18T00:49:25;19.10;99.90
15103;DHT22;7652;53.584;9.998;2023-09-18T00:52:46;19.00;99.90
15103;DHT22;7652;53.584;9.998;2023-09-18T00:56:08;19.10;99.90
15103;DHT22;7652;53.584;9.998;2023-09-18T00:59:31;19.00;99.90
15103;DHT22;7652;53.584;9.998;2023-09-18T01:02:53;19.00;99.90
15103;DHT22;7652;53.584;9.998;2023-09-18T01:06:16;19.00;99.90
15103;DHT22;7652;53.584;9.998;2023-09-18T01:09:38;19.00;99.90
15103;DHT22;7652;53.584;9.998;2023-09-18T01:13:04;19.00;99.90
15103;DHT22;7652;53.584;9.998;2023-09-18T01:16:32;19.00;99.90
15103;DHT22;7652;53.584;9.998;2023-09-18T01:19:56;18.90;99.90
15103;DHT22;7652;53.584;9.998;2023-09-18T01:23:18;18.90;99.90
15103;DHT22;7652;53.584;9.998;2023-09-18T01:26:40;18.90;99.90
15103;DHT22;7652;53.584;9.998;2023-09-18T01:30:01;18.90;99.90
15103;DHT22;7652;53.584;9.998;2023-09-18T01:33:23;18.90;99.90
15103;DHT22;7652;53.584;9.998;2023-09-18T01:36:46;18.80;99.90
15103;DHT22;7652;53.584;9.998;2023-09-18T01:40:09;18.80;99.90
15103;DHT22;7652;53.584;9.998;2023-09-18T01:43:31;18.80;99.90
15103;DHT22;7652;53.584;9.998;2023-09-18T01:46:53;18.80;99.90
15103;DHT22;7652;53.584;9.998;2023-09-18T01:50:16;18.80;99.90
15103;DHT22;7652;53.584;9.998;2023-09-18T01:53:37;18.80;99.90
15103;DHT22;7652;53.584;9.998;2023-09-18T01:57:01;18.80;99.90
15103;DHT22;7652;53.584;9.998;2023-09-18T02:00:22;18.80;99.90
15103;DHT22;7652;53.584;9.998;2023-09-18T02:03:45;18.70;99.90
15103;DHT22;7652;53.584;9.998;2023-09-18T02:07:27;18.70;99.90
15103;DHT22;7652;53.584;9.998;2023-09-18T02:10:49;18.60;99.90
15103;DHT22;7652;53.584;9.998;2023-09-18T02:14:12;18.70;99.90
15103;DHT22;7652;53.584;9.998;2023-09-18T02:17:34;18.70;99.90
15103;DHT22;7652;53.584;9.998;2023-09-18T02:20:57;18.60;99.90
15103;DHT22;7652;53.584;9.998;2023-09-18T02:24:18;18.60;99.90
15103;DHT22;7652;53.584;9.998;2023-09-18T02:27:40;18.60;99.90
15103;DHT22;7652;53.584;9.998;2023-09-18T02:31:03;18.50;99.90
15103;DHT22;7652;53.584;9.998;2023-09-18T02:34:24;18.60;99.90
15103;DHT22;7652;53.584;9.998;2023-09-18T02:37:46;18.50;99.90
15103;DHT22;7652;53.584;9.998;2023-09-18T02:41:07;18.50;99.90
15103;DHT22;7652;53.584;9.998;2023-09-18T02:44:28;18.50;99.90
15103;DHT22;7652;53.584;9.998;2023-09-18T02:47:51;18.50;99.90
15103;DHT22;7652;53.584;9.998;2023-09-18T02:51:13;18.50;99.90
15103;DHT22;7652;53.584;9.998;2023-09-18T02:54:35;18.50;99.90
15103;DHT22;7652;53.584;9.998;2023-09-18T02:57:56;18.40;99.90
15103;DHT22;7652;53.584;9.998;2023-09-18T03:01:18;18.40;99.90
15103;DHT22;7652;53.584;9.998;2023-09-18T03:04:41;18.40;99.90
15103;DHT22;7652;53.584;9.998;2023-09-18T03:08:03;18.40;99.90
15103;DHT22;7652;53.584;9.998;2023-09-18T03:11:24;18.40;99.90
15103;DHT22;7652;53.584;9.998;2023-09-18T03:14:49;18.40;99.90
15103;DHT22;7652;53.584;9.998;2023-09-18T03:18:10;18.40;99.90
15103;DHT22;7652;53.584;9.998;2023-09-18T03:21:33;18.40;99.90
15103;DHT22;7652;53.584;9.998;2023-09-18T03:24:55;18.40;99.90
15103;DHT22;7652;53.584;9.998;2023-09-18T03:28:16;18.40;99.90
15103;DHT22;7652;53.584;9.998;2023-09-18T03:31:38;18.40;99.90
15103;DHT22;7652;53.584;9.998;2023-09-18T03:35:00;18.40;99.90
15103;DHT22;7652;53.584;9.998;2023-09-18T03:38:23;18.40;99.90
15103;DHT22;7652;53.584;9.998;2023-09-18T03:41:45;18.40;99.90
15103;DHT22;7652;53.584;9.998;2023-09-18T03:45:08;18.40;99.90
15103;DHT22;7652;53.584;9.998;2023-09-18T03:48:30;18.40;99.90
15103;DHT22;7652;53.584;9.998;2023-09-18T03:51:57;18.30;99.90
15103;DHT22;7652;53.584;9.998;2023-09-18T03:55:20;18.30;99.90
15103;DHT22;7652;53.584;9.998;2023-09-18T03:58:41;18.30;99.90
15103;DHT22;7652;53.584;9.998;2023-09-18T04:02:05;18.30;99.90
15103;DHT22;7652;53.584;9.998;2023-09-18T04:05:26;18.30;99.90
15103;DHT22;7652;53.584;9.998;2023-09-18T04:08:48;18.30;99.90
15103;DHT22;7652;53.584;9.998;2023-09-18T04:12:12;18.30;99.90
15103;DHT22;7652;53.584;9.998;2023-09-18T04:15:34;18.30;99.90
15103;DHT22;7652;53.584;9.998;2023-09-18T04:18:58;18.30;99.90
15103;DHT22;7652;53.584;9.998;2023-09-18T04:22:19;18.30;99.90
15103;DHT22;7652;53.584;9.998;2023-09-18T04:25:41;18.20;99.90
15103;DHT22;7652;53.584;9.998;2023-09-18T04:29:04;18.20;99.90
15103;DHT22;7652;53.584;9.998;2023-09-18T04:32:27;18.10;99.90
15103;DHT22;7652;53.584;9.998;2023-09-18T04:35:50;18.10;99.90
15103;DHT22;7652;53.584;9.998;2023-09-18T04:39:11;18.20;99.90
15103;DHT22;7652;53.584;9.998;2023-09-18T04:42:34;18.10;99.90
15103;DHT22;7652;53.584;9.998;2023-09-18T04:45:57;18.10;99.90
15103;DHT22;7652;53.584;9.998;2023-09-18T04:49:18;18.10;99.90
15103;DHT22;7652;53.584;9.998;2023-09-18T04:52:39;18.00;99.90
15103;DHT22;7652;53.584;9.998;2023-09-18T04:56:02;18.10;99.90
15103;DHT22;7652;53.584;9.998;2023-09-18T04:59:24;18.00;99.90
15103;DHT22;7652;53.584;9.998;2023-09-18T05:02:47;18.10;99.90
15103;DHT22;7652;53.584;9.998;2023-09-18T05:06:09;18.10;99.90
15103;DHT22;7652;53.584;9.998;2023-09-18T05:09:31;18.10;99.90
15103;DHT22;7652;53.584;9.998;2023-09-18T05:12:52;18.10;99.90
15103;DHT22;7652;53.584;9.998;2023-09-18T05:16:19;18.00;99.90
15103;DHT22;7652;53.584;9.998;2023-09-18T05:19:42;18.00;99.90
15103;DHT22;7652;53.584;9.998;2023-09-18T05:23:04;18.00;99.90
15103;DHT22;7652;53.584;9.998;2023-09-18T05:26:25;18.10;99.90
15103;DHT22;7652;53.584;9.998;2023-09-18T05:29:49;18.10;99.90
15103;DHT22;7652;53.584;9.998;2023-09-18T05:33:11;18.20;99.90
15103;DHT22;7652;53.584;9.998;2023-09-18T05:36:35;18.20;99.90
15103;DHT22;7652;53.584;9.998;2023-09-18T05:39:57;18.20;99.90
15103;DHT22;7652;53.584;9.998;2023-09-18T05:43:18;18.30;99.90
15103;DHT22;7652;53.584;9.998;2023-09-18T05:46:40;18.30;99.90
15103;DHT22;7652;53.584;9.998;2023-09-18T05:50:02;18.30;99.90
15103;DHT22;7652;53.584;9.998;2023-09-18T05:53:27;18.30;99.90
15103;DHT22;7652;53.584;9.998;2023-09-18T05:56:49;18.40;99.90
15103;DHT22;7652;53.584;9.998;2023-09-18T06:00:12;18.50;99.90
15103;DHT22;7652;53.584;9.998;2023-09-18T06:03:34;18.40;99.90
15103;DHT22;7652;53.584;9.998;2023-09-18T06:06:56;18.50;99.90
15103;DHT22;7652;53.584;9.998;2023-09-18T06:10:19;18.50;99.90
15103;DHT22;7652;53.584;9.998;2023-09-18T06:13:41;18.50;99.90
15103;DHT22;7652;53.584;9.998;2023-09-18T06:17:03;18.60;99.90
15103;DHT22;7652;53.584;9.998;2023-09-18T06:20:25;18.70;99.90
15103;DHT22;7652;53.584;9.998;2023-09-18T06:23:46;18.80;99.90
15103;DHT22;7652;53.584;9.998;2023-09-18T06:27:09;18.80;99.90
15103;DHT22;7652;53.584;9.998;2023-09-18T06:30:32;18.90;99.90
15103;DHT22;7652;53.584;9.998;2023-09-18T06:33:54;19.00;99.90
15103;DHT22;7652;53.584;9.998;2023-09-18T06:37:15;19.10;99.90
15103;DHT22;7652;53.584;9.998;2023-09-18T06:40:39;19.20;99.90
15103;DHT22;7652;53.584;9.998;2023-09-18T06:44:02;19.30;99.90
15103;DHT22;7652;53.584;9.998;2023-09-18T06:47:23;19.30;99.90
15103;DHT22;7652;53.584;9.998;2023-09-18T06:50:45;19.40;99.90
15103;DHT22;7652;53.584;9.998;2023-09-18T06:54:06;19.50;99.90
15103;DHT22;7652;53.584;9.998;2023-09-18T06:57:28;19.60;99.90
15103;DHT22;7652;53.584;9.998;2023-09-18T07:00:51;19.70;99.90
15103;DHT22;7652;53.584;9.998;2023-09-18T07:04:12;19.70;99.90
15103;DHT22;7652;53.584;9.998;2023-09-18T07:07:34;19.80;99.90
15103;DHT22;7652;53.584;9.998;2023-09-18T07:10:56;19.90;99.90
15103;DHT22;7652;53.584;9.998;2023-09-18T07:14:17;19.90;99.90
15103;DHT22;7652;53.584;9.998;2023-09-18T07:17:40;20.10;99.90
15103;DHT22;7652;53.584;9.998;2023-09-18T07:21:01;20.30;99.90
15103;DHT22;7652;53.584;9.998;2023-09-18T07:24:24;20.40;99.90
15103;DHT22;7652;53.584;9.998;2023-09-18T07:27:46;20.50;99.90
15103;DHT22;7652;53.584;9.998;2023-09-18T07:31:08;20.50;99.90
15103;DHT22;7652;53.584;9.998;2023-09-18T07:34:33;20.70;99.90
15103;DHT22;7652;53.584;9.998;2023-09-18T07:37:55;20.80;99.90
15103;DHT22;7652;53.584;9.998;2023-09-18T07:41:17;20.90;99.90
15103;DHT22;7652;53.584;9.998;2023-09-18T07:44:41;20.90;99.90
15103;DHT22;7652;53.584;9.998;2023-09-18T07:48:03;20.90;99.90
15103;DHT22;7652;53.584;9.998;2023-09-18T07:51:28;21.00;99.90
15103;DHT22;7652;53.584;9.998;2023-09-18T07:54:50;21.10;99.90
15103;DHT22;7652;53.584;9.998;2023-09-18T07:58:12;21.20;99.90
15103;DHT22;7652;53.584;9.998;2023-09-18T08:01:34;21.20;99.90
15103;DHT22;7652;53.584;9.998;2023-09-18T08:04:55;21.40;99.90
15103;DHT22;7652;53.584;9.998;2023-09-18T08:08:18;21.50;99.90
15103;DHT22;7652;53.584;9.998;2023-09-18T08:11:41;21.50;99.90
15103;DHT22;7652;53.584;9.998;2023-09-18T08:15:07;21.60;99.90
15103;DHT22;7652;53.584;9.998;2023-09-18T08:18:30;21.50;99.90
15103;DHT22;7652;53.584;9.998;2023-09-18T08:21:53;21.50;99.90
15103;DHT22;7652;53.584;9.998;2023-09-18T08:25:16;21.60;99.90
15103;DHT22;7652;53.584;9.998;2023-09-18T08:28:37;21.60;99.90
15103;DHT22;7652;53.584;9.998;2023-09-18T08:32:03;21.50;99.90
15103;DHT22;7652;53.584;9.998;2023-09-18T08:35:25;21.50;99.90
15103;DHT22;7652;53.584;9.998;2023-09-18T08:38:49;21.50;99.90
15103;DHT22;7652;53.584;9.998;2023-09-18T08:42:13;21.40;99.90
15103;DHT22;7652;53.584;9.998;2023-09-18T08:45:40;21.40;99.90
15103;DHT22;7652;53.584;9.998;2023-09-18T08:49:04;21.40;99.90
15103;DHT22;7652;53.584;9.998;2023-09-18T08:52:26;21.40;99.90
15103;DHT22;7652;53.584;9.998;2023-09-18T08:55:48;21.40;99.90
15103;DHT22;7652;53.584;9.998;2023-09-18T08:59:12;21.40;99.90
15103;DHT22;7652;53.584;9.998;2023-09-18T09:02:34;21.40;99.90
15103;DHT22;7652;53.584;9.998;2023-09-18T09:05:56;21.40;99.90
15103;DHT22;7652;53.584;9.998;2023-09-18T09:09:20;21.40;99.90
15103;DHT22;7652;53.584;9.998;2023-09-18T09:12:55;21.50;99.90
15103;DHT22;7652;53.584;9.998;2023-09-18T09:16:19;21.50;99.90
15103;DHT22;7652;53.584;9.998;2023-09-18T09:19:41;21.40;99.90
15103;DHT22;7652;53.584;9.998;2023-09-18T09:23:04;21.50;99.90
15103;DHT22;7652;53.584;9.998;2023-09-18T09:26:26;21.60;99.90
15103;DHT22;7652;53.584;9.998;2023-09-18T09:29:58;21.70;99.90
15103;DHT22;7652;53.584;9.998;2023-09-18T09:33:24;21.90;99.90
15103;DHT22;7652;53.584;9.998;2023-09-18T09:36:52;22.10;99.90
15103;DHT22;7652;53.584;9.998;2023-09-18T09:40:14;22.30;99.90
15103;DHT22;7652;53.584;9.998;2023-09-18T09:43:35;22.40;99.90
15103;DHT22;7652;53.584;9.998;2023-09-18T09:46:59;22.40;99.90
15103;DHT22;7652;53.584;9.998;2023-09-18T09:50:22;22.50;99.90
15103;DHT22;7652;53.584;9.998;2023-09-18T09:53:46;22.50;99.90
15103;DHT22;7652;53.584;9.998;2023-09-18T09:57:08;22.60;99.90
15103;DHT22;7652;53.584;9.998;2023-09-18T10:00:32;22.60;99.90
15103;DHT22;7652;53.584;9.998;2023-09-18T10:03:59;22.70;99.90
15103;DHT22;7652;53.584;9.998;2023-09-18T10:07:22;22.70;99.90
15103;DHT22;7652;53.584;9.998;2023-09-18T10:10:46;22.80;99.90
15103;DHT22;7652;53.584;9.998;2023-09-18T10:14:12;22.80;99.90
15103;DHT22;7652;53.584;9.998;2023-09-18T10:17:42;22.90;99.90
15103;DHT22;7652;53.584;9.998;2023-09-18T10:21:10;22.90;99.90
15103;DHT22;7652;53.584;9.998;2023-09-18T10:24:36;22.90;99.90
15103;DHT22;7652;53.584;9.998;2023-09-18T10:27:59;22.90;99.90
15103;DHT22;7652;53.584;9.998;2023-09-18T10:31:23;22.90;99.90
15103;DHT22;7652;53.584;9.998;2023-09-18T10:34:45;23.10;99.90
15103;DHT22;7652;53.584;9.998;2023-09-18T10:38:08;23.20;99.90
15103;DHT22;7652;53.584;9.998;2023-09-18T10:41:32;23.30;99.90
15103;DHT22;7652;53.584;9.998;2023-09-18T10:44:53;23.40;99.90
15103;DHT22;7652;53.584;9.998;2023-09-18T10:48:18;23.40;99.90
15103;DHT22;7652;53.584;9.998;2023-09-18T10:51:40;23.40;99.90
15103;DHT22;7652;53.584;9.998;2023-09-18T10:55:03;23.50;99.90
15103;DHT22;7652;53.584;9.998;2023-09-18T10:58:27;23.70;99.90
15103;DHT22;7652;53.584;9.998;2023-09-18T11:01:48;23.80;99.90
15103;DHT22;7652;53.584;9.998;2023-09-18T11:05:10;23.90;99.90
15103;DHT22;7652;53.584;9.998;2023-09-18T11:08:34;23.90;99.90
15103;DHT22;7652;53.584;9.998;2023-09-18T11:12:03;24.00;99.90
15103;DHT22;7652;53.584;9.998;2023-09-18T11:15:31;24.10;99.90
15103;DHT22;7652;53.584;9.998;2023-09-18T11:18:53;24.30;99.90
15103;DHT22;7652;53.584;9.998;2023-09-18T11:22:15;24.20;99.90
15103;DHT22;7652;53.584;9.998;2023-09-18T11:25:38;24.10;99.90
15103;DHT22;7652;53.584;9.998;2023-09-18T11:29:01;24.20;99.90
15103;DHT22;7652;53.584;9.998;2023-09-18T11:32:39;24.30;99.90
15103;DHT22;7652;53.584;9.998;2023-09-18T11:36:06;24.20;99.90
15103;DHT22;7652;53.584;9.998;2023-09-18T11:39:36;24.20;99.90
15103;DHT22;7652;53.584;9.998;2023-09-18T11:43:19;24.10;99.90
15103;DHT22;7652;53.584;9.998;2023-09-18T11:46:46;24.30;99.90
15103;DHT22;7652;53.584;9.998;2023-09-18T11:50:10;24.30;99.90
15103;DHT22;7652;53.584;9.998;2023-09-18T11:53:34;24.30;99.90
15103;DHT22;7652;53.584;9.998;2023-09-18T11:57:02;24.20;99.90
15103;DHT22;7652;53.584;9.998;2023-09-18T12:00:25;24.30;99.90
15103;DHT22;7652;53.584;9.998;2023-09-18T12:03:53;24.30;99.90
15103;DHT22;7652;53.584;9.998;2023-09-18T12:07:16;24.30;99.90
15103;DHT22;7652;53.584;9.998;2023-09-18T12:10:39;24.30;99.90
15103;DHT22;7652;53.584;9.998;2023-09-18T12:14:01;24.20;99.90
15103;DHT22;7652;53.584;9.998;2023-09-18T12:17:25;24.20;99.90
15103;DHT22;7652;53.584;9.998;2023-09-18T12:20:48;24.20;99.90
15103;DHT22;7652;53.584;9.998;2023-09-18T12:24:14;24.30;99.90
15103;DHT22;7652;53.584;9.998;2023-09-18T12:27:36;24.40;99.90
15103;DHT22;7652;53.584;9.998;2023-09-18T12:30:58;24.50;99.90
15103;DHT22;7652;53.584;9.998;2023-09-18T12:34:26;24.50;99.90
15103;DHT22;7652;53.584;9.998;2023-09-18T12:37:48;24.40;99.90
15103;DHT22;7652;53.584;9.998;2023-09-18T12:41:11;24.30;99.90
15103;DHT22;7652;53.584;9.998;2023-09-18T12:44:34;24.50;99.90
15103;DHT22;7652;53.584;9.998;2023-09-18T12:47:56;24.60;99.90
15103;DHT22;7652;53.584;9.998;2023-09-18T12:51:28;24.60;99.90
15103;DHT22;7652;53.584;9.998;2023-09-18T12:54:51;24.60;99.90
15103;DHT22;7652;53.584;9.998;2023-09-18T12:58:20;24.80;99.90
15103;DHT22;7652;53.584;9.998;2023-09-18T13:01:46;25.00;99.90
15103;DHT22;7652;53.584;9.998;2023-09-18T13:05:09;24.90;99.90
15103;DHT22;7652;53.584;9.998;2023-09-18T13:08:30;25.30;99.90
15103;DHT22;7652;53.584;9.998;2023-09-18T13:11:53;25.80;99.90
15103;DHT22;7652;53.584;9.998;2023-09-18T13:15:24;25.80;99.90
15103;DHT22;7652;53.584;9.998;2023-09-18T13:18:47;25.50;99.90
15103;DHT22;7652;53.584;9.998;2023-09-18T13:22:10;25.00;99.90
15103;DHT22;7652;53.584;9.998;2023-09-18T13:25:34;24.90;99.90
15103;DHT22;7652;53.584;9.998;2023-09-18T13:28:55;24.70;99.90
15103;DHT22;7652;53.584;9.998;2023-09-18T13:32:18;24.70;99.90
15103;DHT22;7652;53.584;9.998;2023-09-18T13:35:41;24.60;99.90
15103;DHT22;7652;53.584;9.998;2023-09-18T13:39:04;24.50;99.90
15103;DHT22;7652;53.584;9.998;2023-09-18T13:42:26;24.40;99.90
15103;DHT22;7652;53.584;9.998;2023-09-18T13:45:50;24.30;99.90
15103;DHT22;7652;53.584;9.998;2023-09-18T13:49:14;24.30;99.90
15103;DHT22;7652;53.584;9.998;2023-09-18T13:52:36;24.30;99.90
15103;DHT22;7652;53.584;9.998;2023-09-18T13:55:58;24.30;99.90
15103;DHT22;7652;53.584;9.998;2023-09-18T13:59:19;24.20;99.90
15103;DHT22;7652;53.584;9.998;2023-09-18T14:02:41;24.20;99.90
15103;DHT22;7652;53.584;9.998;2023-09-18T14:06:04;24.20;99.90
15103;DHT22;7652;53.584;9.998;2023-09-18T14:09:27;24.10;99.90
15103;DHT22;7652;53.584;9.998;2023-09-18T14:12:49;24.10;99.90
15103;DHT22;7652;53.584;9.998;2023-09-18T14:16:11;24.10;99.90
15103;DHT22;7652;53.584;9.998;2023-09-18T14:19:35;24.00;99.90
15103;DHT22;7652;53.584;9.998;2023-09-18T14:22:59;24.00;99.90
15103;DHT22;7652;53.584;9.998;2023-09-18T14:26:21;23.90;99.90
15103;DHT22;7652;53.584;9.998;2023-09-18T14:29:42;24.00;99.90
15103;DHT22;7652;53.584;9.998;2023-09-18T14:33:05;24.00;99.90
15103;DHT22;7652;53.584;9.998;2023-09-18T14:36:28;24.00;99.90
15103;DHT22;7652;53.584;9.998;2023-09-18T14:39:53;24.10;99.90
15103;DHT22;7652;53.584;9.998;2023-09-18T14:43:15;24.20;99.90
15103;DHT22;7652;53.584;9.998;2023-09-18T14:46:36;24.20;99.90
15103;DHT22;7652;53.584;9.998;2023-09-18T14:49:58;24.30;99.90
15103;DHT22;7652;53.584;9.998;2023-09-18T14:53:21;24.30;99.90
15103;DHT22;7652;53.584;9.998;2023-09-18T14:56:44;24.30;99.90
15103;DHT22;7652;53.584;9.998;2023-09-18T15:00:08;24.30;99.90
15103;DHT22;7652;53.584;9.998;2023-09-18T15:03:29;24.20;99.90
15103;DHT22;7652;53.584;9.998;2023-09-18T15:06:51;24.10;99.90
15103;DHT22;7652;53.584;9.998;2023-09-18T15:10:13;24.00;99.90
15103;DHT22;7652;53.584;9.998;2023-09-18T15:13:36;24.00;99.90
15103;DHT22;7652;53.584;9.998;2023-09-18T15:16:58;24.00;99.90
15103;DHT22;7652;53.584;9.998;2023-09-18T15:20:19;24.00;99.90
15103;DHT22;7652;53.584;9.998;2023-09-18T15:23:44;24.00;99.90
15103;DHT22;7652;53.584;9.998;2023-09-18T15:27:06;24.10;99.90
15103;DHT22;7652;53.584;9.998;2023-09-18T15:30:29;24.20;99.90
15103;DHT22;7652;53.584;9.998;2023-09-18T15:33:50;24.20;99.90
15103;DHT22;7652;53.584;9.998;2023-09-18T15:37:15;24.20;99.90
15103;DHT22;7652;53.584;9.998;2023-09-18T15:40:36;24.20;99.90
15103;DHT22;7652;53.584;9.998;2023-09-18T15:43:58;24.20;99.90
15103;DHT22;7652;53.584;9.998;2023-09-18T15:47:21;24.10;99.90
15103;DHT22;7652;53.584;9.998;2023-09-18T15:50:43;24.00;99.90
15103;DHT22;7652;53.584;9.998;2023-09-18T15:54:05;24.00;99.90
15103;DHT22;7652;53.584;9.998;2023-09-18T15:57:28;24.00;99.90
15103;DHT22;7652;53.584;9.998;2023-09-18T16:00:50;23.90;99.90
15103;DHT22;7652;53.584;9.998;2023-09-18T16:04:12;23.90;99.90
15103;DHT22;7652;53.584;9.998;2023-09-18T16:07:35;23.80;99.90
15103;DHT22;7652;53.584;9.998;2023-09-18T16:10:57;23.80;99.90
15103;DHT22;7652;53.584;9.998;2023-09-18T16:14:19;23.70;99.90
15103;DHT22;7652;53.584;9.998;2023-09-18T16:17:43;23.70;99.90
15103;DHT22;7652;53.584;9.998;2023-09-18T16:21:06;23.60;99.90
15103;DHT22;7652;53.584;9.998;2023-09-18T16:24:28;23.60;99.90
15103;DHT22;7652;53.584;9.998;2023-09-18T16:27:50;23.60;99.90
15103;DHT22;7652;53.584;9.998;2023-09-18T16:31:14;23.50;99.90
15103;DHT22;7652;53.584;9.998;2023-09-18T16:34:36;23.50;99.90
15103;DHT22;7652;53.584;9.998;2023-09-18T16:37:59;23.50;99.90
15103;DHT22;7652;53.584;9.998;2023-09-18T16:41:20;23.40;99.90
15103;DHT22;7652;53.584;9.998;2023-09-18T16:44:42;23.30;99.90
15103;DHT22;7652;53.584;9.998;2023-09-18T16:48:04;23.30;99.90
15103;DHT22;7652;53.584;9.998;2023-09-18T16:51:25;23.20;99.90
15103;DHT22;7652;53.584;9.998;2023-09-18T16:54:48;23.20;99.90
15103;DHT22;7652;53.584;9.998;2023-09-18T16:58:10;23.10;99.90
15103;DHT22;7652;53.584;9.998;2023-09-18T17:01:31;23.10;99.90
15103;DHT22;7652;53.584;9.998;2023-09-18T17:04:53;23.00;99.90
15103;DHT22;7652;53.584;9.998;2023-09-18T17:08:15;22.90;99.90
15103;DHT22;7652;53.584;9.998;2023-09-18T17:11:38;22.90;99.90
15103;DHT22;7652;53.584;9.998;2023-09-18T17:15:00;22.80;99.90
15103;DHT22;7652;53.584;9.998;2023-09-18T17:18:22;22.80;99.90
15103;DHT22;7652;53.584;9.998;2023-09-18T17:21:45;22.70;99.90
15103;DHT22;7652;53.584;9.998;2023-09-18T17:25:07;22.60;99.90
15103;DHT22;7652;53.584;9.998;2023-09-18T17:28:31;22.60;99.90
15103;DHT22;7652;53.584;9.998;2023-09-18T17:31:54;22.60;99.90
15103;DHT22;7652;53.584;9.998;2023-09-18T17:35:15;22.50;99.90
15103;DHT22;7652;53.584;9.998;2023-09-18T17:38:38;22.50;99.90
15103;DHT22;7652;53.584;9.998;2023-09-18T17:42:00;22.40;99.90
15103;DHT22;7652;53.584;9.998;2023-09-18T17:45:23;22.30;99.90
15103;DHT22;7652;53.584;9.998;2023-09-18T17:48:45;22.30;99.90
15103;DHT22;7652;53.584;9.998;2023-09-18T17:52:06;22.20;99.90
15103;DHT22;7652;53.584;9.998;2023-09-18T17:55:31;22.10;99.90
15103;DHT22;7652;53.584;9.998;2023-09-18T17:58:53;22.10;99.90
15103;DHT22;7652;53.584;9.998;2023-09-18T18:02:15;22.10;99.90
15103;DHT22;7652;53.584;9.998;2023-09-18T18:05:39;22.10;99.90
15103;DHT22;7652;53.584;9.998;2023-09-18T18:09:04;22.00;99.90
15103;DHT22;7652;53.584;9.998;2023-09-18T18:12:25;22.00;99.90
15103;DHT22;7652;53.584;9.998;2023-09-18T18:15:49;22.00;99.90
15103;DHT22;7652;53.584;9.998;2023-09-18T18:19:12;22.00;99.90
15103;DHT22;7652;53.584;9.998;2023-09-18T18:22:40;22.00;99.90
15103;DHT22;7652;53.584;9.998;2023-09-18T18:26:06;22.00;99.90
15103;DHT22;7652;53.584;9.998;2023-09-18T18:29:30;21.90;99.90
15103;DHT22;7652;53.584;9.998;2023-09-18T18:32:51;21.90;99.90
15103;DHT22;7652;53.584;9.998;2023-09-18T18:36:15;21.80;99.90
15103;DHT22;7652;53.584;9.998;2023-09-18T18:39:36;21.60;99.90
15103;DHT22;7652;53.584;9.998;2023-09-18T18:42:59;21.60;99.90
15103;DHT22;7652;53.584;9.998;2023-09-18T18:46:22;21.60;99.90
15103;DHT22;7652;53.584;9.998;2023-09-18T18:49:43;21.50;99.90
15103;DHT22;7652;53.584;9.998;2023-09-18T18:53:06;21.50;99.90
15103;DHT22;7652;53.584;9.998;2023-09-18T18:56:28;21.50;99.90
15103;DHT22;7652;53.584;9.998;2023-09-18T18:59:51;21.60;99.90
15103;DHT22;7652;53.584;9.998;2023-09-18T19:03:12;21.60;99.90
15103;DHT22;7652;53.584;9.998;2023-09-18T19:06:34;21.50;99.90
15103;DHT22;7652;53.584;9.998;2023-09-18T19:09:57;21.50;99.90
15103;DHT22;7652;53.584;9.998;2023-09-18T19:13:19;21.40;99.90
15103;DHT22;7652;53.584;9.998;2023-09-18T19:16:41;21.40;99.90
15103;DHT22;7652;53.584;9.998;2023-09-18T19:20:03;21.40;99.90
15103;DHT22;7652;53.584;9.998;2023-09-18T19:23:25;21.30;99.90
15103;DHT22;7652;53.584;9.998;2023-09-18T19:26:50;21.30;99.90
15103;DHT22;7652;53.584;9.998;2023-09-18T19:30:11;21.30;99.90
15103;DHT22;7652;53.584;9.998;2023-09-18T19:33:33;21.20;99.90
15103;DHT22;7652;53.584;9.998;2023-09-18T19:36:59;21.20;99.90
15103;DHT22;7652;53.584;9.998;2023-09-18T19:40:28;21.20;99.90
15103;DHT22;7652;53.584;9.998;2023-09-18T19:43:53;21.10;99.90
15103;DHT22;7652;53.584;9.998;2023-09-18T19:47:15;21.10;99.90
15103;DHT22;7652;53.584;9.998;2023-09-18T19:50:38;21.00;99.90
15103;DHT22;7652;53.584;9.998;2023-09-18T19:53:59;21.00;99.90
15103;DHT22;7652;53.584;9.998;2023-09-18T19:57:22;21.00;99.90
15103;DHT22;7652;53.584;9.998;2023-09-18T20:00:45;20.90;99.90
15103;DHT22;7652;53.584;9.998;2023-09-18T20:04:06;20.90;99.90
15103;DHT22;7652;53.584;9.998;2023-09-18T20:07:28;20.90;99.90
15103;DHT22;7652;53.584;9.998;2023-09-18T20:10:51;21.00;99.90
15103;DHT22;7652;53.584;9.998;2023-09-18T20:14:13;21.00;99.90
15103;DHT22;7652;53.584;9.998;2023-09-18T20:17:53;20.90;99.90
15103;DHT22;7652;53.584;9.998;2023-09-18T20:21:14;20.90;99.90
15103;DHT22;7652;53.584;9.998;2023-09-18T20:24:36;20.20;99.90
15103;DHT22;7652;53.584;9.998;2023-09-18T20:27:57;19.20;99.90
15103;DHT22;7652;53.584;9.998;2023-09-18T20:31:19;18.70;99.90
15103;DHT22;7652;53.584;9.998;2023-09-18T20:34:43;18.20;99.90
15103;DHT22;7652;53.584;9.998;2023-09-18T20:38:06;17.60;99.90
15103;DHT22;7652;53.584;9.998;2023-09-18T20:41:30;17.40;99.90
15103;DHT22;7652;53.584;9.998;2023-09-18T20:44:52;17.20;99.90
15103;DHT22;7652;53.584;9.998;2023-09-18T20:48:15;17.10;99.90
15103;DHT22;7652;53.584;9.998;2023-09-18T20:51:38;17.00;99.90
15103;DHT22;7652;53.584;9.998;2023-09-18T20:55:00;17.10;99.90
15103;DHT22;7652;53.584;9.998;2023-09-18T20:58:21;17.00;99.90
15103;DHT22;7652;53.584;9.998;2023-09-18T21:01:44;16.90;99.90
15103;DHT22;7652;53.584;9.998;2023-09-18T21:05:06;16.90;99.90
15103;DHT22;7652;53.584;9.998;2023-09-18T21:08:29;16.80;99.90
15103;DHT22;7652;53.584;9.998;2023-09-18T21:11:51;16.90;99.90
15103;DHT22;7652;53.584;9.998;2023-09-18T21:15:12;16.80;99.90
15103;DHT22;7652;53.584;9.998;2023-09-18T21:18:34;16.70;99.90
15103;DHT22;7652;53.584;9.998;2023-09-18T21:21:56;16.80;99.90
15103;DHT22;7652;53.584;9.998;2023-09-18T21:25:19;16.80;99.90
15103;DHT22;7652;53.584;9.998;2023-09-18T21:28:40;16.80;99.90
15103;DHT22;7652;53.584;9.998;2023-09-18T21:32:01;16.70;99.90
15103;DHT22;7652;53.584;9.998;2023-09-18T21:35:25;16.70;99.90
15103;DHT22;7652;53.584;9.998;2023-09-18T21:38:48;16.70;99.90
15103;DHT22;7652;53.584;9.998;2023-09-18T21:42:11;16.80;99.90